sensor_id;sensor_type;location;lat;lon;timestamp;temperature;humidity
33863;DHT22;20158;51.436;-2.742;2024-02-21T00:01:03;13.70;66.70
33863;DHT22;20158;51.436;-2.742;2024-02-21T00:03:48;13.70;66.80
33863;DHT22;20158;51.436;-2.742;2024-02-21T00:06:33;13.60;66.70
33863;DHT22;20158;51.436;-2.742;2024-02-21T00:09:18;13.60;66.70
33863;DHT22;20158;51.436;-2.742;2024-02-21T00:12:03;13.60;66.70
33863;DHT22;20158;51.436;-2.742;2024-02-21T00:14:49;13.50;66.60
33863;DHT22;20158;51.436;-2.742;2024-02-21T00:17:33;13.60;66.80
33863;DHT22;20158;51.436;-2.742;2024-02-21T00:20:18;13.60;66.90
33863;DHT22;20158;51.436;-2.742;2024-02-21T00:23:04;13.50;66.70
33863;DHT22;20158;51.436;-2.742;2024-02-21T00:25:48;13.50;66.80
33863;DHT22;20158;51.436;-2.742;2024-02-21T00:28:34;13.50;66.80
33863;DHT22;20158;51.436;-2.742;2024-02-21T00:31:18;13.50;66.90
33863;DHT22;20158;51.436;-2.742;2024-02-21T00:34:03;13.50;66.90
33863;DHT22;20158;51.436;-2.742;2024-02-21T00:36:47;13.50;67.00
33863;DHT22;20158;51.436;-2.742;2024-02-21T00:39:32;13.50;67.00
33863;DHT22;20158;51.436;-2.742;2024-02-21T00:42:18;13.50;67.00
33863;DHT22;20158;51.436;-2.742;2024-02-21T00:45:03;13.50;67.10
33863;DHT22;20158;51.436;-2.742;2024-02-21T00:47:47;13.40;66.90
33863;DHT22;20158;51.436;-2.742;2024-02-21T00:50:32;13.40;67.00
33863;DHT22;20158;51.436;-2.742;2024-02-21T00:53:16;13.50;67.20
33863;DHT22;20158;51.436;-2.742;2024-02-21T00:56:01;13.40;67.00
33863;DHT22;20158;51.436;-2.742;2024-02-21T00:58:45;13.40;67.10
33863;DHT22;20158;51.436;-2.742;2024-02-21T01:01:31;13.40;67.10
33863;DHT22;20158;51.436;-2.742;2024-02-21T01:04:18;13.40;67.20
33863;DHT22;20158;51.436;-2.742;2024-02-21T01:07:03;13.40;67.20
33863;DHT22;20158;51.436;-2.742;2024-02-21T01:09:48;13.40;67.20
33863;DHT22;20158;51.436;-2.742;2024-02-21T01:12:32;13.40;67.30
33863;DHT22;20158;51.436;-2.742;2024-02-21T01:15:16;13.40;67.30
33863;DHT22;20158;51.436;-2.742;2024-02-21T01:18:02;13.30;67.20
33863;DHT22;20158;51.436;-2.742;2024-02-21T01:20:49;13.30;67.20
33863;DHT22;20158;51.436;-2.742;2024-02-21T01:23:35;13.30;67.30
33863;DHT22;20158;51.436;-2.742;2024-02-21T01:26:19;13.30;67.30
33863;DHT22;20158;51.436;-2.742;2024-02-21T01:29:04;13.30;67.40
33863;DHT22;20158;51.436;-2.742;2024-02-21T01:31:48;13.30;67.40
33863;DHT22;20158;51.436;-2.742;2024-02-21T01:34:33;13.30;67.50
33863;DHT22;20158;51.436;-2.742;2024-02-21T01:37:18;13.30;67.50
33863;DHT22;20158;51.436;-2.742;2024-02-21T01:40:03;13.30;67.50
33863;DHT22;20158;51.436;-2.742;2024-02-21T01:42:47;13.30;67.50
33863;DHT22;20158;51.436;-2.742;2024-02-21T01:45:32;13.30;67.60
33863;DHT22;20158;51.436;-2.742;2024-02-21T01:48:22;13.30;67.60
33863;DHT22;20158;51.436;-2.742;2024-02-21T01:51:06;13.30;67.70
33863;DHT22;20158;51.436;-2.742;2024-02-21T01:53:51;13.20;67.50
33863;DHT22;20158;51.436;-2.742;2024-02-21T01:56:35;13.20;67.50
33863;DHT22;20158;51.436;-2.742;2024-02-21T01:59:21;13.20;67.60
33863;DHT22;20158;51.436;-2.742;2024-02-21T02:02:06;13.20;67.60
33863;DHT22;20158;51.436;-2.742;2024-02-21T02:04:51;13.20;67.60
33863;DHT22;20158;51.436;-2.742;2024-02-21T02:07:37;13.20;67.60
33863;DHT22;20158;51.436;-2.742;2024-02-21T02:10:21;13.20;67.70
33863;DHT22;20158;51.436;-2.742;2024-02-21T02:13:06;13.20;67.60
33863;DHT22;20158;51.436;-2.742;2024-02-21T02:15:51;13.20;67.70
33863;DHT22;20158;51.436;-2.742;2024-02-21T02:18:35;13.20;67.80
33863;DHT22;20158;51.436;-2.742;2024-02-21T02:21:29;13.10;67.60
33863;DHT22;20158;51.436;-2.742;2024-02-21T02:24:16;13.10;67.70
33863;DHT22;20158;51.436;-2.742;2024-02-21T02:27:01;13.10;67.70
33863;DHT22;20158;51.436;-2.742;2024-02-21T02:29:46;13.10;67.70
33863;DHT22;20158;51.436;-2.742;2024-02-21T02:32:30;13.10;67.80
33863;DHT22;20158;51.436;-2.742;2024-02-21T02:35:15;13.10;67.80
33863;DHT22;20158;51.436;-2.742;2024-02-21T02:38:00;13.10;67.80
33863;DHT22;20158;51.436;-2.742;2024-02-21T02:40:45;13.10;67.80
33863;DHT22;20158;51.436;-2.742;2024-02-21T02:43:29;13.10;67.90
33863;DHT22;20158;51.436;-2.742;2024-02-21T02:46:14;13.10;67.90
33863;DHT22;20158;51.436;-2.742;2024-02-21T02:48:58;13.10;68.00
33863;DHT22;20158;51.436;-2.742;2024-02-21T02:51:43;13.00;67.80
33863;DHT22;20158;51.436;-2.742;2024-02-21T02:54:28;13.00;67.80
33863;DHT22;20158;51.436;-2.742;2024-02-21T02:57:13;13.00;67.80
33863;DHT22;20158;51.436;-2.742;2024-02-21T02:59:58;13.00;67.90
33863;DHT22;20158;51.436;-2.742;2024-02-21T03:02:45;13.00;67.90
33863;DHT22;20158;51.436;-2.742;2024-02-21T03:05:30;13.00;67.90
33863;DHT22;20158;51.436;-2.742;2024-02-21T03:08:15;13.00;68.00
33863;DHT22;20158;51.436;-2.742;2024-02-21T03:11:00;12.90;67.80
33863;DHT22;20158;51.436;-2.742;2024-02-21T03:13:44;12.90;67.80
33863;DHT22;20158;51.436;-2.742;2024-02-21T03:16:29;12.90;67.90
33863;DHT22;20158;51.436;-2.742;2024-02-21T03:19:14;12.90;67.90
33863;DHT22;20158;51.436;-2.742;2024-02-21T03:21:58;12.90;67.90
33863;DHT22;20158;51.436;-2.742;2024-02-21T03:24:45;12.90;68.00
33863;DHT22;20158;51.436;-2.742;2024-02-21T03:27:30;12.90;68.00
33863;DHT22;20158;51.436;-2.742;2024-02-21T03:30:15;12.90;68.00
33863;DHT22;20158;51.436;-2.742;2024-02-21T03:32:59;12.90;68.00
33863;DHT22;20158;51.436;-2.742;2024-02-21T03:35:45;12.80;67.90
33863;DHT22;20158;51.436;-2.742;2024-02-21T03:38:29;12.80;67.90
33863;DHT22;20158;51.436;-2.742;2024-02-21T03:41:13;12.80;67.90
33863;DHT22;20158;51.436;-2.742;2024-02-21T03:43:57;12.80;68.00
33863;DHT22;20158;51.436;-2.742;2024-02-21T03:46:42;12.80;68.00
33863;DHT22;20158;51.436;-2.742;2024-02-21T03:49:27;12.80;68.00
33863;DHT22;20158;51.436;-2.742;2024-02-21T03:52:11;12.70;67.90
33863;DHT22;20158;51.436;-2.742;2024-02-21T03:54:56;12.70;67.90
33863;DHT22;20158;51.436;-2.742;2024-02-21T03:57:40;12.70;68.00
33863;DHT22;20158;51.436;-2.742;2024-02-21T04:00:24;12.70;68.00
33863;DHT22;20158;51.436;-2.742;2024-02-21T04:03:10;12.70;68.00
33863;DHT22;20158;51.436;-2.742;2024-02-21T04:05:55;12.70;68.00
33863;DHT22;20158;51.436;-2.742;2024-02-21T04:08:42;12.60;67.90
33863;DHT22;20158;51.436;-2.742;2024-02-21T04:11:27;12.60;67.90
33863;DHT22;20158;51.436;-2.742;2024-02-21T04:14:12;12.60;68.00
33863;DHT22;20158;51.436;-2.742;2024-02-21T04:16:57;12.60;68.00
33863;DHT22;20158;51.436;-2.742;2024-02-21T04:19:42;12.60;68.00
33863;DHT22;20158;51.436;-2.742;2024-02-21T04:22:27;12.60;68.10
33863;DHT22;20158;51.436;-2.742;2024-02-21T04:25:12;12.60;68.10
33863;DHT22;20158;51.436;-2.742;2024-02-21T04:27:56;12.60;68.10
33863;DHT22;20158;51.436;-2.742;2024-02-21T04:30:42;12.50;67.90
33863;DHT22;20158;51.436;-2.742;2024-02-21T04:33:26;12.50;68.00
33863;DHT22;20158;51.436;-2.742;2024-02-21T04:36:11;12.50;68.00
33863;DHT22;20158;51.436;-2.742;2024-02-21T04:38:55;12.50;68.00
33863;DHT22;20158;51.436;-2.742;2024-02-21T04:41:40;12.50;68.00
33863;DHT22;20158;51.436;-2.742;2024-02-21T04:44:25;12.50;68.00
33863;DHT22;20158;51.436;-2.742;2024-02-21T04:47:10;12.50;68.10
33863;DHT22;20158;51.436;-2.742;2024-02-21T04:49:54;12.40;67.90
33863;DHT22;20158;51.436;-2.742;2024-02-21T04:52:39;12.40;67.90
33863;DHT22;20158;51.436;-2.742;2024-02-21T04:55:24;12.40;68.00
33863;DHT22;20158;51.436;-2.742;2024-02-21T04:58:09;12.40;68.00
33863;DHT22;20158;51.436;-2.742;2024-02-21T05:00:54;12.40;68.00
33863;DHT22;20158;51.436;-2.742;2024-02-21T05:03:39;12.40;68.10
33863;DHT22;20158;51.436;-2.742;2024-02-21T05:06:23;12.40;68.10
33863;DHT22;20158;51.436;-2.742;2024-02-21T05:09:09;12.40;68.10
33863;DHT22;20158;51.436;-2.742;2024-02-21T05:11:53;12.40;68.10
33863;DHT22;20158;51.436;-2.742;2024-02-21T05:14:38;12.40;68.20
33863;DHT22;20158;51.436;-2.742;2024-02-21T05:17:22;12.40;68.20
33863;DHT22;20158;51.436;-2.742;2024-02-21T05:20:07;12.40;68.20
33863;DHT22;20158;51.436;-2.742;2024-02-21T05:22:52;12.40;68.20
33863;DHT22;20158;51.436;-2.742;2024-02-21T05:25:37;12.40;68.20
33863;DHT22;20158;51.436;-2.742;2024-02-21T05:28:22;12.40;68.20
33863;DHT22;20158;51.436;-2.742;2024-02-21T05:31:06;12.40;68.30
33863;DHT22;20158;51.436;-2.742;2024-02-21T05:33:51;12.40;68.30
33863;DHT22;20158;51.436;-2.742;2024-02-21T05:36:36;12.30;68.10
33863;DHT22;20158;51.436;-2.742;2024-02-21T05:39:21;12.40;68.30
33863;DHT22;20158;51.436;-2.742;2024-02-21T05:42:07;12.30;68.20
33863;DHT22;20158;51.436;-2.742;2024-02-21T05:44:52;12.40;68.40
33863;DHT22;20158;51.436;-2.742;2024-02-21T05:47:37;12.40;68.40
33863;DHT22;20158;51.436;-2.742;2024-02-21T05:50:21;12.30;68.20
33863;DHT22;20158;51.436;-2.742;2024-02-21T05:53:08;12.30;68.30
33863;DHT22;20158;51.436;-2.742;2024-02-21T05:55:52;12.30;68.30
33863;DHT22;20158;51.436;-2.742;2024-02-21T05:58:37;12.30;68.40
33863;DHT22;20158;51.436;-2.742;2024-02-21T06:01:21;12.30;68.40
33863;DHT22;20158;51.436;-2.742;2024-02-21T06:04:06;12.30;68.40
33863;DHT22;20158;51.436;-2.742;2024-02-21T06:06:51;12.30;68.50
33863;DHT22;20158;51.436;-2.742;2024-02-21T06:09:35;12.30;68.50
33863;DHT22;20158;51.436;-2.742;2024-02-21T06:12:20;12.30;68.50
33863;DHT22;20158;51.436;-2.742;2024-02-21T06:15:05;12.30;68.50
33863;DHT22;20158;51.436;-2.742;2024-02-21T06:17:50;12.30;68.50
33863;DHT22;20158;51.436;-2.742;2024-02-21T06:20:34;12.30;68.50
33863;DHT22;20158;51.436;-2.742;2024-02-21T06:23:20;12.30;68.60
33863;DHT22;20158;51.436;-2.742;2024-02-21T06:26:05;12.30;68.60
33863;DHT22;20158;51.436;-2.742;2024-02-21T06:28:50;12.30;68.60
33863;DHT22;20158;51.436;-2.742;2024-02-21T06:31:35;12.30;68.60
33863;DHT22;20158;51.436;-2.742;2024-02-21T06:34:19;12.30;68.70
33863;DHT22;20158;51.436;-2.742;2024-02-21T06:37:07;12.30;68.70
33863;DHT22;20158;51.436;-2.742;2024-02-21T06:39:51;12.20;68.60
33863;DHT22;20158;51.436;-2.742;2024-02-21T06:42:36;12.20;69.10
33863;DHT22;20158;51.436;-2.742;2024-02-21T06:45:20;12.20;68.60
33863;DHT22;20158;51.436;-2.742;2024-02-21T06:48:06;12.20;68.70
33863;DHT22;20158;51.436;-2.742;2024-02-21T06:50:50;12.20;68.70
33863;DHT22;20158;51.436;-2.742;2024-02-21T06:53:38;12.20;68.80
33863;DHT22;20158;51.436;-2.742;2024-02-21T06:56:25;12.20;69.20
33863;DHT22;20158;51.436;-2.742;2024-02-21T06:59:12;12.30;69.60
33863;DHT22;20158;51.436;-2.742;2024-02-21T07:02:00;12.30;69.90
33863;DHT22;20158;51.436;-2.742;2024-02-21T07:04:45;12.40;70.50
33863;DHT22;20158;51.436;-2.742;2024-02-21T07:07:29;12.50;71.00
33863;DHT22;20158;51.436;-2.742;2024-02-21T07:10:14;12.50;71.20
33863;DHT22;20158;51.436;-2.742;2024-02-21T07:12:58;12.50;71.30
33863;DHT22;20158;51.436;-2.742;2024-02-21T07:15:43;12.50;71.40
33863;DHT22;20158;51.436;-2.742;2024-02-21T07:18:27;12.60;71.90
33863;DHT22;20158;51.436;-2.742;2024-02-21T07:21:12;12.60;72.10
33863;DHT22;20158;51.436;-2.742;2024-02-21T07:23:57;12.60;72.30
33863;DHT22;20158;51.436;-2.742;2024-02-21T07:26:42;12.60;72.60
33863;DHT22;20158;51.436;-2.742;2024-02-21T07:29:30;12.70;73.00
33863;DHT22;20158;51.436;-2.742;2024-02-21T07:32:14;12.70;73.20
33863;DHT22;20158;51.436;-2.742;2024-02-21T07:34:59;12.70;73.50
33863;DHT22;20158;51.436;-2.742;2024-02-21T07:37:43;12.80;73.80
33863;DHT22;20158;51.436;-2.742;2024-02-21T07:40:27;12.80;73.80
33863;DHT22;20158;51.436;-2.742;2024-02-21T07:43:12;12.80;73.90
33863;DHT22;20158;51.436;-2.742;2024-02-21T07:45:56;12.80;73.90
33863;DHT22;20158;51.436;-2.742;2024-02-21T07:48:41;12.80;73.90
33863;DHT22;20158;51.436;-2.742;2024-02-21T07:51:28;12.80;73.90
33863;DHT22;20158;51.436;-2.742;2024-02-21T07:54:12;12.80;73.90
33863;DHT22;20158;51.436;-2.742;2024-02-21T07:56:57;12.80;73.90
33863;DHT22;20158;51.436;-2.742;2024-02-21T07:59:42;12.80;73.90
33863;DHT22;20158;51.436;-2.742;2024-02-21T08:02:26;12.70;73.70
33863;DHT22;20158;51.436;-2.742;2024-02-21T08:05:11;12.80;73.80
33863;DHT22;20158;51.436;-2.742;2024-02-21T08:07:56;12.70;73.60
33863;DHT22;20158;51.436;-2.742;2024-02-21T08:10:41;12.70;73.60
33863;DHT22;20158;51.436;-2.742;2024-02-21T08:13:25;12.70;73.60
33863;DHT22;20158;51.436;-2.742;2024-02-21T08:16:12;12.70;73.50
33863;DHT22;20158;51.436;-2.742;2024-02-21T08:18:56;12.70;73.50
33863;DHT22;20158;51.436;-2.742;2024-02-21T08:21:41;12.70;73.50
33863;DHT22;20158;51.436;-2.742;2024-02-21T08:24:26;12.70;73.50
33863;DHT22;20158;51.436;-2.742;2024-02-21T08:27:14;12.70;73.40
33863;DHT22;20158;51.436;-2.742;2024-02-21T08:29:58;12.70;73.50
33863;DHT22;20158;51.436;-2.742;2024-02-21T08:32:43;12.70;73.30
33863;DHT22;20158;51.436;-2.742;2024-02-21T08:35:27;12.70;73.30
33863;DHT22;20158;51.436;-2.742;2024-02-21T08:38:12;12.70;73.30
33863;DHT22;20158;51.436;-2.742;2024-02-21T08:40:57;12.70;73.20
33863;DHT22;20158;51.436;-2.742;2024-02-21T08:43:41;12.70;73.20
33863;DHT22;20158;51.436;-2.742;2024-02-21T08:46:26;12.70;73.10
33863;DHT22;20158;51.436;-2.742;2024-02-21T08:49:10;12.70;73.20
33863;DHT22;20158;51.436;-2.742;2024-02-21T08:51:55;12.80;73.30
33863;DHT22;20158;51.436;-2.742;2024-02-21T08:54:40;12.70;73.00
33863;DHT22;20158;51.436;-2.742;2024-02-21T08:57:25;12.70;73.00
33863;DHT22;20158;51.436;-2.742;2024-02-21T09:00:10;12.80;73.10
33863;DHT22;20158;51.436;-2.742;2024-02-21T09:02:57;12.80;73.10
33863;DHT22;20158;51.436;-2.742;2024-02-21T09:05:41;12.80;73.00
33863;DHT22;20158;51.436;-2.742;2024-02-21T09:08:26;12.80;73.00
33863;DHT22;20158;51.436;-2.742;2024-02-21T09:11:11;12.80;73.00
33863;DHT22;20158;51.436;-2.742;2024-02-21T09:13:56;12.80;72.90
33863;DHT22;20158;51.436;-2.742;2024-02-21T09:16:40;12.80;72.90
33863;DHT22;20158;51.436;-2.742;2024-02-21T09:19:25;12.90;73.00
33863;DHT22;20158;51.436;-2.742;2024-02-21T09:22:09;12.90;73.00
33863;DHT22;20158;51.436;-2.742;2024-02-21T09:24:54;12.90;72.90
33863;DHT22;20158;51.436;-2.742;2024-02-21T09:27:38;12.90;72.90
33863;DHT22;20158;51.436;-2.742;2024-02-21T09:30:23;13.00;73.00
33863;DHT22;20158;51.436;-2.742;2024-02-21T09:33:07;13.00;73.10
33863;DHT22;20158;51.436;-2.742;2024-02-21T09:35:52;13.00;73.50
33863;DHT22;20158;51.436;-2.742;2024-02-21T09:38:39;13.10;73.90
33863;DHT22;20158;51.436;-2.742;2024-02-21T09:41:27;13.20;74.10
33863;DHT22;20158;51.436;-2.742;2024-02-21T09:44:13;13.20;74.20
33863;DHT22;20158;51.436;-2.742;2024-02-21T09:47:11;13.20;74.10
33863;DHT22;20158;51.436;-2.742;2024-02-21T09:49:58;13.30;74.30
33863;DHT22;20158;51.436;-2.742;2024-02-21T09:52:44;13.20;74.10
33863;DHT22;20158;51.436;-2.742;2024-02-21T09:55:31;13.30;74.20
33863;DHT22;20158;51.436;-2.742;2024-02-21T09:58:18;13.30;74.20
33863;DHT22;20158;51.436;-2.742;2024-02-21T10:01:03;13.30;74.20
33863;DHT22;20158;51.436;-2.742;2024-02-21T10:03:50;13.30;74.10
33863;DHT22;20158;51.436;-2.742;2024-02-21T10:06:34;13.30;74.10
33863;DHT22;20158;51.436;-2.742;2024-02-21T10:09:27;13.30;74.00
33863;DHT22;20158;51.436;-2.742;2024-02-21T10:12:12;13.40;74.20
33863;DHT22;20158;51.436;-2.742;2024-02-21T10:15:05;13.40;74.10
33863;DHT22;20158;51.436;-2.742;2024-02-21T10:17:58;13.40;74.10
33863;DHT22;20158;51.436;-2.742;2024-02-21T10:20:44;13.40;74.00
33863;DHT22;20158;51.436;-2.742;2024-02-21T10:23:28;13.40;73.90
33863;DHT22;20158;51.436;-2.742;2024-02-21T10:26:14;13.40;73.90
33863;DHT22;20158;51.436;-2.742;2024-02-21T10:28:58;13.40;73.90
33863;DHT22;20158;51.436;-2.742;2024-02-21T10:31:46;13.50;74.00
33863;DHT22;20158;51.436;-2.742;2024-02-21T10:34:30;13.50;73.90
33863;DHT22;20158;51.436;-2.742;2024-02-21T10:37:15;13.50;73.80
33863;DHT22;20158;51.436;-2.742;2024-02-21T10:40:00;13.60;73.90
33863;DHT22;20158;51.436;-2.742;2024-02-21T10:42:46;13.60;73.80
33863;DHT22;20158;51.436;-2.742;2024-02-21T10:45:35;13.60;73.70
33863;DHT22;20158;51.436;-2.742;2024-02-21T10:48:24;13.70;73.80
33863;DHT22;20158;51.436;-2.742;2024-02-21T10:51:18;13.70;73.60
33863;DHT22;20158;51.436;-2.742;2024-02-21T10:54:17;13.80;73.80
33863;DHT22;20158;51.436;-2.742;2024-02-21T10:57:05;13.80;73.70
33863;DHT22;20158;51.436;-2.742;2024-02-21T10:59:51;13.90;73.70
33863;DHT22;20158;51.436;-2.742;2024-02-21T11:02:37;14.00;73.70
33863;DHT22;20158;51.436;-2.742;2024-02-21T11:05:24;14.00;73.50
33863;DHT22;20158;51.436;-2.742;2024-02-21T11:08:10;14.10;73.60
33863;DHT22;20158;51.436;-2.742;2024-02-21T11:10:59;14.10;73.50
33863;DHT22;20158;51.436;-2.742;2024-02-21T11:13:44;14.10;73.40
33863;DHT22;20158;51.436;-2.742;2024-02-21T11:16:35;14.10;73.30
33863;DHT22;20158;51.436;-2.742;2024-02-21T11:19:25;14.20;73.40
33863;DHT22;20158;51.436;-2.742;2024-02-21T11:22:17;14.30;73.50
33863;DHT22;20158;51.436;-2.742;2024-02-21T11:25:08;14.30;73.30
33863;DHT22;20158;51.436;-2.742;2024-02-21T11:28:05;14.40;73.30
33863;DHT22;20158;51.436;-2.742;2024-02-21T11:30:51;14.40;73.20
33863;DHT22;20158;51.436;-2.742;2024-02-21T11:33:36;14.50;73.20
33863;DHT22;20158;51.436;-2.742;2024-02-21T11:36:26;14.50;73.20
33863;DHT22;20158;51.436;-2.742;2024-02-21T11:39:11;14.60;73.50
33863;DHT22;20158;51.436;-2.742;2024-02-21T11:42:14;14.70;73.80
33863;DHT22;20158;51.436;-2.742;2024-02-21T11:45:00;14.80;74.20
33863;DHT22;20158;51.436;-2.742;2024-02-21T11:47:45;15.00;74.30
33863;DHT22;20158;51.436;-2.742;2024-02-21T11:50:31;15.10;74.20
33863;DHT22;20158;51.436;-2.742;2024-02-21T11:53:15;15.30;74.40
33863;DHT22;20158;51.436;-2.742;2024-02-21T11:56:01;15.50;74.50
33863;DHT22;20158;51.436;-2.742;2024-02-21T11:58:47;15.60;74.30
33863;DHT22;20158;51.436;-2.742;2024-02-21T12:01:32;15.70;74.20
33863;DHT22;20158;51.436;-2.742;2024-02-21T12:04:16;15.90;74.30
33863;DHT22;20158;51.436;-2.742;2024-02-21T12:07:03;16.00;74.20
33863;DHT22;20158;51.436;-2.742;2024-02-21T12:09:48;16.10;74.20
33863;DHT22;20158;51.436;-2.742;2024-02-21T12:12:33;16.10;73.90
33863;DHT22;20158;51.436;-2.742;2024-02-21T12:15:20;16.20;73.90
33863;DHT22;20158;51.436;-2.742;2024-02-21T12:18:05;16.30;73.90
33863;DHT22;20158;51.436;-2.742;2024-02-21T12:20:49;16.30;73.70
33863;DHT22;20158;51.436;-2.742;2024-02-21T12:23:34;16.40;73.70
33863;DHT22;20158;51.436;-2.742;2024-02-21T12:26:19;16.50;73.70
33863;DHT22;20158;51.436;-2.742;2024-02-21T12:29:03;16.60;73.60
33863;DHT22;20158;51.436;-2.742;2024-02-21T12:31:48;16.60;73.40
33863;DHT22;20158;51.436;-2.742;2024-02-21T12:34:33;16.70;73.40
33863;DHT22;20158;51.436;-2.742;2024-02-21T12:37:19;16.70;73.20
33863;DHT22;20158;51.436;-2.742;2024-02-21T12:40:06;16.80;73.10
33863;DHT22;20158;51.436;-2.742;2024-02-21T12:42:50;16.90;73.10
33863;DHT22;20158;51.436;-2.742;2024-02-21T12:45:36;17.00;73.00
33863;DHT22;20158;51.436;-2.742;2024-02-21T12:48:21;17.10;73.00
33863;DHT22;20158;51.436;-2.742;2024-02-21T12:51:07;17.20;72.90
33863;DHT22;20158;51.436;-2.742;2024-02-21T12:53:51;17.30;72.80
33863;DHT22;20158;51.436;-2.742;2024-02-21T12:56:36;17.40;72.70
33863;DHT22;20158;51.436;-2.742;2024-02-21T12:59:20;17.50;72.50
33863;DHT22;20158;51.436;-2.742;2024-02-21T13:02:06;17.60;72.30
33863;DHT22;20158;51.436;-2.742;2024-02-21T13:04:50;17.70;72.60
33863;DHT22;20158;51.436;-2.742;2024-02-21T13:07:35;17.90;72.10
33863;DHT22;20158;51.436;-2.742;2024-02-21T13:10:20;18.00;71.90
33863;DHT22;20158;51.436;-2.742;2024-02-21T13:13:04;18.10;71.70
33863;DHT22;20158;51.436;-2.742;2024-02-21T13:15:49;18.20;71.60
33863;DHT22;20158;51.436;-2.742;2024-02-21T13:18:35;18.20;71.40
33863;DHT22;20158;51.436;-2.742;2024-02-21T13:21:21;18.30;71.40
33863;DHT22;20158;51.436;-2.742;2024-02-21T13:24:06;18.30;71.20
33863;DHT22;20158;51.436;-2.742;2024-02-21T13:26:50;18.30;71.00
33863;DHT22;20158;51.436;-2.742;2024-02-21T13:29:35;18.30;70.90
33863;DHT22;20158;51.436;-2.742;2024-02-21T13:32:20;18.30;70.80
33863;DHT22;20158;51.436;-2.742;2024-02-21T13:35:04;18.30;70.70
33863;DHT22;20158;51.436;-2.742;2024-02-21T13:37:49;18.20;70.50
33863;DHT22;20158;51.436;-2.742;2024-02-21T13:40:34;18.20;70.50
33863;DHT22;20158;51.436;-2.742;2024-02-21T13:43:19;18.20;70.50
33863;DHT22;20158;51.436;-2.742;2024-02-21T13:46:03;18.20;70.50
33863;DHT22;20158;51.436;-2.742;2024-02-21T13:49:02;18.10;70.30
33863;DHT22;20158;51.436;-2.742;2024-02-21T13:51:48;18.10;70.30
33863;DHT22;20158;51.436;-2.742;2024-02-21T13:54:33;18.00;70.20
33863;DHT22;20158;51.436;-2.742;2024-02-21T13:57:17;18.00;70.10
33863;DHT22;20158;51.436;-2.742;2024-02-21T14:00:03;18.00;70.20
33863;DHT22;20158;51.436;-2.742;2024-02-21T14:02:56;18.00;70.10
33863;DHT22;20158;51.436;-2.742;2024-02-21T14:05:42;18.00;70.10
33863;DHT22;20158;51.436;-2.742;2024-02-21T14:08:27;18.10;70.20
33863;DHT22;20158;51.436;-2.742;2024-02-21T14:11:11;18.10;70.10
33863;DHT22;20158;51.436;-2.742;2024-02-21T14:13:56;18.10;70.10
33863;DHT22;20158;51.436;-2.742;2024-02-21T14:16:41;18.10;70.00
33863;DHT22;20158;51.436;-2.742;2024-02-21T14:19:25;18.00;69.80
33863;DHT22;20158;51.436;-2.742;2024-02-21T14:22:10;18.00;69.80
33863;DHT22;20158;51.436;-2.742;2024-02-21T14:24:56;18.00;69.80
33863;DHT22;20158;51.436;-2.742;2024-02-21T14:27:41;17.90;69.70
33863;DHT22;20158;51.436;-2.742;2024-02-21T14:30:25;18.00;69.90
33863;DHT22;20158;51.436;-2.742;2024-02-21T14:33:10;18.00;69.80
33863;DHT22;20158;51.436;-2.742;2024-02-21T14:35:54;18.10;69.90
33863;DHT22;20158;51.436;-2.742;2024-02-21T14:38:39;18.10;69.70
33863;DHT22;20158;51.436;-2.742;2024-02-21T14:41:25;18.10;69.50
33863;DHT22;20158;51.436;-2.742;2024-02-21T14:44:10;18.10;69.40
33863;DHT22;20158;51.436;-2.742;2024-02-21T14:46:54;18.10;69.40
33863;DHT22;20158;51.436;-2.742;2024-02-21T14:49:39;18.10;69.30
33863;DHT22;20158;51.436;-2.742;2024-02-21T14:52:23;18.10;69.30
33863;DHT22;20158;51.436;-2.742;2024-02-21T14:55:13;18.10;69.30
33863;DHT22;20158;51.436;-2.742;2024-02-21T14:57:58;18.00;69.20
33863;DHT22;20158;51.436;-2.742;2024-02-21T15:00:43;18.00;69.20
33863;DHT22;20158;51.436;-2.742;2024-02-21T15:03:27;17.90;69.10
33863;DHT22;20158;51.436;-2.742;2024-02-21T15:06:12;17.90;69.20
33863;DHT22;20158;51.436;-2.742;2024-02-21T15:08:57;17.90;69.20
33863;DHT22;20158;51.436;-2.742;2024-02-21T15:11:41;17.80;69.10
33863;DHT22;20158;51.436;-2.742;2024-02-21T15:14:26;17.80;69.10
33863;DHT22;20158;51.436;-2.742;2024-02-21T15:17:12;17.80;69.10
33863;DHT22;20158;51.436;-2.742;2024-02-21T15:19:57;17.80;69.10
33863;DHT22;20158;51.436;-2.742;2024-02-21T15:22:43;17.70;69.00
33863;DHT22;20158;51.436;-2.742;2024-02-21T15:25:27;17.70;69.00
33863;DHT22;20158;51.436;-2.742;2024-02-21T15:28:14;17.70;69.00
33863;DHT22;20158;51.436;-2.742;2024-02-21T15:30:59;17.60;68.80
33863;DHT22;20158;51.436;-2.742;2024-02-21T15:33:43;17.60;68.90
33863;DHT22;20158;51.436;-2.742;2024-02-21T15:36:28;17.50;68.70
33863;DHT22;20158;51.436;-2.742;2024-02-21T15:39:12;17.60;68.90
33863;DHT22;20158;51.436;-2.742;2024-02-21T15:41:57;17.50;68.80
33863;DHT22;20158;51.436;-2.742;2024-02-21T15:44:41;17.50;68.80
33863;DHT22;20158;51.436;-2.742;2024-02-21T15:47:25;17.50;68.80
33863;DHT22;20158;51.436;-2.742;2024-02-21T15:50:10;17.40;68.60
33863;DHT22;20158;51.436;-2.742;2024-02-21T15:52:55;17.40;68.70
33863;DHT22;20158;51.436;-2.742;2024-02-21T15:55:40;17.40;68.70
33863;DHT22;20158;51.436;-2.742;2024-02-21T15:58:24;17.40;68.70
33863;DHT22;20158;51.436;-2.742;2024-02-21T16:01:08;17.40;68.80
33863;DHT22;20158;51.436;-2.742;2024-02-21T16:03:55;17.40;68.90
33863;DHT22;20158;51.436;-2.742;2024-02-21T16:06:42;17.30;68.70
33863;DHT22;20158;51.436;-2.742;2024-02-21T16:09:28;17.40;68.90
33863;DHT22;20158;51.436;-2.742;2024-02-21T16:12:13;17.40;68.90
33863;DHT22;20158;51.436;-2.742;2024-02-21T16:14:58;17.40;68.90
33863;DHT22;20158;51.436;-2.742;2024-02-21T16:17:43;17.40;68.90
33863;DHT22;20158;51.436;-2.742;2024-02-21T16:20:27;17.40;69.00
33863;DHT22;20158;51.436;-2.742;2024-02-21T16:23:12;17.40;69.00
33863;DHT22;20158;51.436;-2.742;2024-02-21T16:25:58;17.40;69.00
33863;DHT22;20158;51.436;-2.742;2024-02-21T16:28:42;17.40;69.00
33863;DHT22;20158;51.436;-2.742;2024-02-21T16:31:27;17.40;69.00
33863;DHT22;20158;51.436;-2.742;2024-02-21T16:34:11;17.40;69.00
33863;DHT22;20158;51.436;-2.742;2024-02-21T16:36:56;17.40;69.00
33863;DHT22;20158;51.436;-2.742;2024-02-21T16:39:43;17.40;69.10
33863;DHT22;20158;51.436;-2.742;2024-02-21T16:42:28;17.40;69.10
33863;DHT22;20158;51.436;-2.742;2024-02-21T16:45:13;17.40;69.70
33863;DHT22;20158;51.436;-2.742;2024-02-21T16:47:57;17.40;69.20
33863;DHT22;20158;51.436;-2.742;2024-02-21T16:50:42;17.30;69.10
33863;DHT22;20158;51.436;-2.742;2024-02-21T16:53:26;17.30;69.20
33863;DHT22;20158;51.436;-2.742;2024-02-21T16:56:11;17.40;69.40
33863;DHT22;20158;51.436;-2.742;2024-02-21T16:58:56;17.30;69.20
33863;DHT22;20158;51.436;-2.742;2024-02-21T17:01:41;17.30;69.20
33863;DHT22;20158;51.436;-2.742;2024-02-21T17:04:25;17.30;69.30
33863;DHT22;20158;51.436;-2.742;2024-02-21T17:07:10;17.30;69.30